MAPA DE AEROPUERTO

INFORMACIÓN METAR y TAF

METAR FOR GCLP
ADDS - METARS form results

(1509 UTC 09 August 2020)
Data provider http://aviationweather.gov/metar/data/
 
METAR text: GCLP 091500Z 02028KT 9999 FEW025 27/18 Q1015 NOSIG
Conditions at: GCLP (LAS PALMAS/GANDO, ES) observed 1500 UTC 09 August 2020
Temperature: 27.0°C (81°F)
Dewpoint: 18.0°C (64°F) [RH = 58%]
Pressure (altimeter): 29.97 inches Hg (1015.0 mb)
Winds: from the NNE (20 degrees) at 32 MPH (28 knots; 14.4 m/s)
Visibility: 6 or more miles (10+ km)
Ceiling: at least 12,000 feet AGL
Clouds: few clouds at 2500 feet AGL
Weather: no significant weather observed at this time

METAR text: GCLP 091430Z 02027KT 9999 FEW025 28/17 Q1015 NOSIG
Conditions at: GCLP (LAS PALMAS/GANDO, ES) observed 1430 UTC 09 August 2020
Temperature: 28.0°C (82°F)
Dewpoint: 17.0°C (63°F) [RH = 51%]
Pressure (altimeter): 29.97 inches Hg (1015.0 mb)
Winds: from the NNE (20 degrees) at 31 MPH (27 knots; 13.9 m/s)
Visibility: 6 or more miles (10+ km)
Ceiling: at least 12,000 feet AGL
Clouds: few clouds at 2500 feet AGL
Weather: no significant weather observed at this time

Forecast for: GCLP (LAS PALMAS/GANDO, ES)
Text: TAF GCLP 091400Z 0915/1015 02027KT 9999 FEW025 TX27/1014Z TN22/1006Z
Forecast period: 1500 UTC 09 August 2020 to 1500 UTC 10 August 2020
Forecast type: FROM: standard forecast or significant change
Winds: from the NNE (20 degrees) at 31 MPH (27 knots; 13.9 m/s)
Visibility: 6 or more miles (10+ km)
Ceiling: at least 12,000 feet AGL
Clouds: few clouds at 2500 feet AGL
Weather: no significant weather forecast for this period